KWAL/WAL METAR and TAF weather

Enter ICAO airport designator
Station Type Date Time Source
KWAL METAR 2021/09/16 09:54 UTC NOAA

KWAL 160954Z AUTO 19003KT 10SM FEW085 23/23 A3006 RMK AO2 SLP176 T02280228


Station Type Date Time Source
KWAL Decoded METAR 2021/09/16 09:54 UTC NOAA

WALLOPS FLIGHT FAC AIRPORT , VA, United States (KWAL) 37-56N 075-28W 14M
Sep 16, 2021 - 05:54 AM EDT / 2021.09.16 0954 UTC
Wind: from the S (190 degrees) at 3 MPH (3 KT):0
Visibility: 10 mile(s):0
Sky conditions: mostly clear
Temperature: 73.0 F (22.8 C)
Dew Point: 73.0 F (22.8 C)
Relative Humidity: 100%
Pressure (altimeter): 30.06 in. Hg (1017 hPa)
ob: KWAL 160954Z AUTO 19003KT 10SM FEW085 23/23 A3006 RMK AO2 SLP176 T02280228
cycle: 10

Station Type Date Time Source
KWAL TAF UTC NOAA

Error!

Example: see airport list